createdAt,value
2018-06-30T00:00:31.688Z,60.77
2018-06-30T00:03:00.160Z,60.48
2018-06-30T00:05:28.551Z,60.40
2018-06-30T00:07:56.967Z,61.54
2018-06-30T00:10:31.653Z,60.29
2018-06-30T00:13:01.401Z,61.00
2018-06-30T00:15:30.180Z,60.72
2018-06-30T00:17:58.659Z,60.95
2018-06-30T00:20:27.069Z,60.79
2018-06-30T00:22:55.915Z,61.22
2018-06-30T00:25:24.318Z,61.55
2018-06-30T00:27:55.574Z,61.42
2018-06-30T00:30:25.096Z,61.04
2018-06-30T00:32:53.823Z,60.50
2018-06-30T00:35:22.255Z,61.69
2018-06-30T00:37:50.657Z,61.52
2018-06-30T00:40:19.090Z,62.18
2018-06-30T00:42:47.496Z,62.43
2018-06-30T00:45:16.808Z,62.00
2018-06-30T00:47:45.267Z,63.20
2018-06-30T00:50:13.964Z,62.60
2018-06-30T00:52:42.411Z,62.40
2018-06-30T00:55:11.135Z,61.82
2018-06-30T00:57:39.602Z,62.49
2018-06-30T01:00:08.514Z,61.85
2018-06-30T01:02:36.951Z,62.99
2018-06-30T01:05:05.450Z,62.89
2018-06-30T01:07:33.912Z,62.21
2018-06-30T01:10:02.396Z,63.72
2018-06-30T01:12:30.883Z,63.12
2018-06-30T01:14:59.333Z,62.64
2018-06-30T01:17:27.755Z,62.65
2018-06-30T01:19:56.829Z,62.44
2018-06-30T01:22:25.208Z,62.91
2018-06-30T01:24:53.619Z,63.94
2018-06-30T01:27:21.988Z,64.31
2018-06-30T01:29:50.348Z,62.94
2018-06-30T01:32:18.712Z,63.75
2018-06-30T01:34:47.111Z,63.46
2018-06-30T01:37:15.572Z,63.29
2018-06-30T01:39:44.032Z,64.78
2018-06-30T01:42:12.450Z,64.05
2018-06-30T01:44:40.828Z,64.57
2018-06-30T01:47:09.338Z,64.93
2018-06-30T01:49:38.082Z,64.85
2018-06-30T01:52:07.032Z,64.82
2018-06-30T01:54:35.421Z,65.66
2018-06-30T01:57:03.881Z,65.69
2018-06-30T01:59:32.282Z,65.66
2018-06-30T02:02:01.000Z,65.90
2018-06-30T02:04:29.463Z,65.72
2018-06-30T02:06:57.892Z,66.73
2018-06-30T02:09:26.302Z,65.88
2018-06-30T02:11:54.704Z,66.76
2018-06-30T02:14:23.113Z,66.58
2018-06-30T02:16:51.554Z,66.63
2018-06-30T02:19:19.924Z,66.22
2018-06-30T02:21:48.329Z,67.42
2018-06-30T02:24:16.852Z,67.57
2018-06-30T02:26:45.244Z,67.97
2018-06-30T02:29:13.645Z,67.29
2018-06-30T02:31:42.077Z,66.75
2018-06-30T02:34:10.482Z,67.93
2018-06-30T02:36:38.901Z,67.22
2018-06-30T02:39:08.115Z,67.58
2018-06-30T02:41:36.535Z,67.51
2018-06-30T02:44:05.000Z,68.46
2018-06-30T02:46:33.724Z,68.04
2018-06-30T02:49:02.423Z,68.25
2018-06-30T02:51:30.970Z,69.48
2018-06-30T02:53:59.383Z,69.66
2018-06-30T02:56:27.820Z,70.08
2018-06-30T02:58:56.249Z,70.22
2018-06-30T03:01:24.683Z,69.87
2018-06-30T03:03:53.070Z,69.64
2018-06-30T03:06:21.482Z,70.62
2018-06-30T03:08:49.948Z,70.53
2018-06-30T03:11:18.601Z,70.11
2018-06-30T03:13:47.084Z,69.68
2018-06-30T03:16:17.497Z,70.58
2018-06-30T03:18:46.662Z,71.05
2018-06-30T03:21:15.048Z,70.79
2018-06-30T03:23:43.596Z,71.45
2018-06-30T03:26:12.105Z,71.38
2018-06-30T03:28:40.586Z,71.72
2018-06-30T03:31:09.829Z,71.63
2018-06-30T03:33:38.266Z,72.60
2018-06-30T03:36:06.690Z,71.60
2018-06-30T03:38:35.117Z,70.43
2018-06-30T03:41:03.510Z,70.80
2018-06-30T03:43:31.897Z,71.46
2018-06-30T03:46:00.282Z,71.59
2018-06-30T03:48:28.671Z,70.61
2018-06-30T03:50:57.123Z,71.40
2018-06-30T03:53:25.544Z,71.22
2018-06-30T03:55:54.008Z,71.14
2018-06-30T03:58:22.450Z,71.01
2018-06-30T04:00:50.872Z,71.31
2018-06-30T04:03:19.351Z,71.55
2018-06-30T04:05:47.714Z,72.34
2018-06-30T04:08:16.132Z,72.18
2018-06-30T04:10:44.515Z,72.66
2018-06-30T04:13:12.911Z,72.58
2018-06-30T04:15:41.381Z,71.82
2018-06-30T04:18:09.784Z,72.66
2018-06-30T04:20:38.204Z,73.28
2018-06-30T04:23:06.629Z,72.54
2018-06-30T04:25:35.147Z,71.97
2018-06-30T04:28:03.579Z,72.01
2018-06-30T04:30:31.945Z,73.21
2018-06-30T04:33:00.345Z,72.86
2018-06-30T04:35:29.243Z,73.30
2018-06-30T04:37:57.686Z,72.73
2018-06-30T04:40:26.263Z,73.08
2018-06-30T04:42:54.640Z,72.85
2018-06-30T04:45:23.710Z,72.03
2018-06-30T04:47:52.093Z,72.04
2018-06-30T04:50:21.753Z,72.03
2018-06-30T04:52:50.184Z,73.18
2018-06-30T04:55:18.782Z,72.91
2018-06-30T04:57:47.220Z,72.58
2018-06-30T05:00:16.449Z,73.00
2018-06-30T05:02:44.863Z,72.54
2018-06-30T05:05:13.233Z,71.74
2018-06-30T05:07:41.661Z,72.41
2018-06-30T05:10:10.060Z,72.58
2018-06-30T05:12:38.457Z,72.72
2018-06-30T05:15:07.105Z,73.01
2018-06-30T05:17:35.510Z,72.47
2018-06-30T05:20:04.091Z,72.29
2018-06-30T05:22:32.504Z,71.20
2018-06-30T05:25:01.120Z,71.85
2018-06-30T05:27:29.537Z,71.13
2018-06-30T05:29:58.505Z,71.04
2018-06-30T05:32:26.941Z,71.57
2018-06-30T05:34:55.421Z,71.79
2018-06-30T05:37:23.892Z,70.88
2018-06-30T05:39:52.283Z,71.38
2018-06-30T05:42:20.769Z,71.72
2018-06-30T05:44:49.260Z,71.17
2018-06-30T05:47:17.735Z,71.34
2018-06-30T05:49:46.148Z,70.79
2018-06-30T05:52:14.575Z,70.99
2018-06-30T05:54:42.949Z,70.02
2018-06-30T05:57:11.372Z,70.74
2018-06-30T05:59:39.843Z,71.41
2018-06-30T06:02:09.153Z,71.03
2018-06-30T06:04:37.590Z,71.37
2018-06-30T06:07:07.048Z,70.68
2018-06-30T06:09:35.550Z,71.53
2018-06-30T06:12:04.021Z,71.40
2018-06-30T06:14:32.432Z,71.57
2018-06-30T06:17:00.826Z,71.08
2018-06-30T06:19:29.255Z,70.79
2018-06-30T06:21:57.636Z,69.53
2018-06-30T06:24:26.078Z,70.08
2018-06-30T06:26:54.538Z,70.31
2018-06-30T06:29:23.004Z,69.82
2018-06-30T06:31:51.444Z,69.50
2018-06-30T06:34:19.805Z,69.98
2018-06-30T06:36:48.213Z,70.00
2018-06-30T06:39:16.663Z,69.16
2018-06-30T06:41:45.143Z,68.83
2018-06-30T06:44:13.533Z,68.90
2018-06-30T06:46:42.029Z,68.45
2018-06-30T06:49:10.480Z,68.43
2018-06-30T06:51:38.877Z,68.82
2018-06-30T06:54:07.260Z,68.36
2018-06-30T06:56:35.664Z,67.98
2018-06-30T06:59:04.127Z,68.28
2018-06-30T07:01:32.581Z,67.84
2018-06-30T07:04:01.014Z,67.66
2018-06-30T07:06:29.441Z,67.37
2018-06-30T07:08:57.889Z,67.92
2018-06-30T07:11:26.403Z,67.34
2018-06-30T07:13:54.844Z,66.85
2018-06-30T07:16:23.285Z,67.66
2018-06-30T07:18:51.672Z,66.68
2018-06-30T07:21:20.140Z,66.44
2018-06-30T07:23:48.568Z,66.61
2018-06-30T07:26:17.505Z,67.23
2018-06-30T07:28:46.321Z,66.80
2018-06-30T07:31:14.729Z,67.16
2018-06-30T07:33:43.143Z,66.47
2018-06-30T07:36:12.996Z,65.77
2018-06-30T07:38:41.450Z,66.89
2018-06-30T07:41:09.848Z,66.31
2018-06-30T07:43:38.336Z,66.78
2018-06-30T07:46:06.799Z,66.45
2018-06-30T07:48:35.240Z,66.44
2018-06-30T07:51:03.712Z,66.96
2018-06-30T07:53:32.141Z,66.10
2018-06-30T07:56:00.657Z,66.81
2018-06-30T07:58:29.101Z,65.61
2018-06-30T08:00:57.545Z,65.10
2018-06-30T08:03:26.108Z,65.30
2018-06-30T08:08:21.878Z,64.33
2018-06-30T08:10:50.252Z,64.78
2018-06-30T08:13:18.646Z,64.80
2018-06-30T08:15:47.077Z,65.31
2018-06-30T08:18:15.471Z,64.87
2018-06-30T08:20:43.916Z,64.48
2018-06-30T08:23:12.310Z,64.81
2018-06-30T08:25:40.762Z,65.26
2018-06-30T08:28:09.228Z,64.85
2018-06-30T08:30:37.632Z,63.18
2018-06-30T08:33:06.477Z,62.75
2018-06-30T08:35:34.884Z,64.32
2018-06-30T08:38:03.266Z,63.49
2018-06-30T08:40:31.763Z,63.01
2018-06-30T08:43:00.194Z,62.42
2018-06-30T08:45:28.569Z,61.06
2018-06-30T08:47:56.988Z,61.36
2018-06-30T08:50:25.711Z,60.54
2018-06-30T08:52:54.104Z,62.16
2018-06-30T08:55:22.524Z,62.25
2018-06-30T08:57:51.020Z,61.57
2018-06-30T09:00:19.442Z,62.56
2018-06-30T09:02:47.869Z,62.48
2018-06-30T09:05:16.308Z,61.37
2018-06-30T09:07:44.709Z,60.44
2018-06-30T09:10:13.047Z,60.53
2018-06-30T09:12:41.473Z,60.31
2018-06-30T09:15:09.923Z,60.34
2018-06-30T09:17:38.292Z,59.77
2018-06-30T09:20:06.788Z,60.99
2018-06-30T09:22:35.253Z,60.83
2018-06-30T09:25:03.700Z,60.12
2018-06-30T09:27:32.136Z,59.64
2018-06-30T09:30:00.564Z,59.77
2018-06-30T09:32:29.051Z,59.59
2018-06-30T09:34:57.522Z,59.98
2018-06-30T09:37:25.933Z,59.47
2018-06-30T09:39:54.444Z,59.94
2018-06-30T09:42:22.879Z,58.97
2018-06-30T09:44:51.309Z,58.82
2018-06-30T09:47:19.722Z,59.85
2018-06-30T09:49:48.119Z,60.07
2018-06-30T09:52:16.567Z,60.69
2018-06-30T09:54:45.001Z,59.74
2018-06-30T09:57:13.476Z,59.49
2018-06-30T09:59:41.911Z,59.82
2018-06-30T10:02:10.292Z,58.71
2018-06-30T10:04:38.746Z,58.46
2018-06-30T10:07:07.692Z,58.61
2018-06-30T10:09:36.164Z,59.33
2018-06-30T10:12:04.590Z,57.33
2018-06-30T10:14:33.010Z,57.00
2018-06-30T10:17:01.492Z,57.98
2018-06-30T10:19:30.142Z,57.79
2018-06-30T10:21:58.585Z,57.25
2018-06-30T10:24:27.035Z,57.52
2018-06-30T10:26:55.501Z,56.30
2018-06-30T10:29:24.039Z,56.62
2018-06-30T10:31:52.431Z,55.67
2018-06-30T10:34:20.849Z,56.73
2018-06-30T10:36:49.246Z,56.85
2018-06-30T10:39:17.690Z,56.91
2018-06-30T10:41:46.102Z,56.21
2018-06-30T10:44:14.524Z,55.64
2018-06-30T10:46:42.930Z,56.32
2018-06-30T10:49:12.056Z,55.34
2018-06-30T10:51:40.501Z,56.36
2018-06-30T10:54:09.022Z,55.02
2018-06-30T10:56:37.393Z,54.98
2018-06-30T10:59:05.845Z,55.74
2018-06-30T11:01:34.249Z,54.66
2018-06-30T11:04:02.769Z,54.67
2018-06-30T11:06:31.139Z,55.18
2018-06-30T11:08:59.580Z,55.48
2018-06-30T11:11:28.033Z,55.39
2018-06-30T11:13:56.462Z,53.99
2018-06-30T11:16:24.921Z,54.12
2018-06-30T11:18:53.345Z,53.57
2018-06-30T11:21:21.753Z,52.73
2018-06-30T11:23:50.180Z,52.99
2018-06-30T11:26:18.570Z,51.96
2018-06-30T11:28:47.115Z,52.34
2018-06-30T11:31:15.582Z,52.67
2018-06-30T11:33:44.026Z,51.00
2018-06-30T11:36:12.450Z,52.98
2018-06-30T11:38:40.859Z,51.54
2018-06-30T11:41:09.737Z,51.51
2018-06-30T11:43:38.285Z,51.56
2018-06-30T11:46:06.754Z,51.51
2018-06-30T11:48:35.229Z,51.73
2018-06-30T11:51:03.658Z,51.28
2018-06-30T11:53:32.556Z,52.89
2018-06-30T11:56:00.985Z,50.25
2018-06-30T11:58:29.475Z,48.52
2018-06-30T12:00:57.895Z,48.00
2018-06-30T12:03:26.371Z,48.39
2018-06-30T12:05:54.849Z,47.42
2018-06-30T12:08:23.737Z,49.42
2018-06-30T12:10:52.177Z,48.18
2018-06-30T12:13:20.600Z,46.94
2018-06-30T12:15:49.013Z,46.74
2018-06-30T12:18:17.901Z,45.58
2018-06-30T12:20:46.352Z,43.21
2018-06-30T12:23:14.774Z,46.17
2018-06-30T12:25:43.153Z,41.84
2018-06-30T12:28:11.594Z,43.35
2018-06-30T12:30:40.021Z,43.20
2018-06-30T12:33:08.451Z,41.80
2018-06-30T12:35:36.933Z,44.98
2018-06-30T12:38:05.546Z,40.46
2018-06-30T12:40:33.954Z,43.06
2018-06-30T12:43:02.426Z,41.21
2018-06-30T12:45:31.054Z,38.96
2018-06-30T12:47:59.595Z,41.53
2018-06-30T12:50:28.010Z,36.61
2018-06-30T12:52:57.444Z,38.20
2018-06-30T12:55:25.835Z,38.63
2018-06-30T12:57:54.260Z,37.32
2018-06-30T13:00:22.696Z,37.11
2018-06-30T13:02:51.192Z,36.80
2018-06-30T13:05:19.603Z,36.10
2018-06-30T13:07:48.093Z,37.08
2018-06-30T13:10:16.544Z,36.30
2018-06-30T13:12:44.980Z,36.60
2018-06-30T13:15:13.348Z,36.92
2018-06-30T13:17:41.779Z,36.20
2018-06-30T13:20:10.192Z,36.52
2018-06-30T13:22:38.647Z,35.06
2018-06-30T13:25:07.097Z,34.96
2018-06-30T13:27:35.839Z,34.97
2018-06-30T13:30:05.001Z,36.82
2018-06-30T13:32:33.599Z,34.86
2018-06-30T13:35:02.031Z,34.95
2018-06-30T13:37:30.469Z,34.87
2018-06-30T13:39:58.964Z,36.59
2018-06-30T13:42:27.411Z,35.20
2018-06-30T13:44:55.918Z,33.87
2018-06-30T13:47:24.328Z,33.17
2018-06-30T13:49:52.779Z,34.72
2018-06-30T13:52:21.196Z,35.01
2018-06-30T13:54:49.662Z,35.40
2018-06-30T13:57:18.091Z,33.82
2018-06-30T13:59:46.533Z,34.92
2018-06-30T14:02:14.952Z,34.48
2018-06-30T14:04:43.901Z,34.80
2018-06-30T14:07:12.350Z,33.76
2018-06-30T14:09:40.730Z,34.49
2018-06-30T14:12:09.197Z,34.40
2018-06-30T14:14:37.596Z,34.36
2018-06-30T14:17:06.060Z,34.26
2018-06-30T14:19:34.638Z,32.94
2018-06-30T14:22:03.109Z,34.05
2018-06-30T14:24:31.489Z,35.00
2018-06-30T14:27:00.008Z,34.41
2018-06-30T14:29:28.430Z,34.83
2018-06-30T14:31:56.808Z,34.25
2018-06-30T14:34:25.243Z,33.96
2018-06-30T14:36:53.763Z,33.36
2018-06-30T14:39:22.202Z,32.90
2018-06-30T14:41:50.615Z,33.58
2018-06-30T14:44:27.000Z,33.45
2018-06-30T14:46:55.603Z,32.13
2018-06-30T14:49:24.141Z,32.72
2018-06-30T14:51:52.654Z,34.25
2018-06-30T14:54:21.120Z,33.50
2018-06-30T14:56:49.601Z,32.75
2018-06-30T14:59:18.544Z,32.49
2018-06-30T15:01:47.187Z,33.08
2018-06-30T15:04:15.653Z,32.95
2018-06-30T15:06:44.110Z,32.39
2018-06-30T15:09:14.625Z,32.62
2018-06-30T15:11:44.374Z,33.91
2018-06-30T15:14:13.551Z,33.60
2018-06-30T15:16:43.732Z,34.15
2018-06-30T15:19:12.209Z,33.23
2018-06-30T15:21:40.684Z,32.74
2018-06-30T15:24:09.859Z,33.42
2018-06-30T15:26:38.394Z,33.35
2018-06-30T15:29:06.864Z,34.47
2018-06-30T15:31:35.410Z,34.24
2018-06-30T15:34:03.884Z,32.64
2018-06-30T15:36:33.220Z,33.82
2018-06-30T15:39:01.728Z,32.50
2018-06-30T15:41:30.231Z,32.16
2018-06-30T15:43:58.676Z,32.16
2018-06-30T15:46:27.129Z,31.83
2018-06-30T15:48:55.572Z,32.49
2018-06-30T15:51:23.989Z,32.78
2018-06-30T15:53:52.486Z,30.67
2018-06-30T15:56:20.872Z,30.21
2018-06-30T15:58:49.385Z,30.55
2018-06-30T16:01:18.804Z,31.23
2018-06-30T16:03:47.281Z,31.79
2018-06-30T16:06:15.674Z,30.81
2018-06-30T16:08:44.177Z,30.43
2018-06-30T16:11:12.545Z,30.55
2018-06-30T16:13:41.012Z,29.41
2018-06-30T16:16:09.465Z,30.09
2018-06-30T16:18:52.548Z,31.09
2018-06-30T16:21:20.990Z,30.46
2018-06-30T16:23:49.462Z,30.13
2018-06-30T16:26:17.861Z,28.52
2018-06-30T16:28:46.341Z,28.36
2018-06-30T16:31:15.428Z,29.13
2018-06-30T16:33:43.847Z,29.85
2018-06-30T16:36:12.313Z,29.58
2018-06-30T16:38:40.757Z,29.30
2018-06-30T16:41:09.145Z,28.67
2018-06-30T16:43:37.755Z,29.25
2018-06-30T16:46:06.327Z,27.89
2018-06-30T16:48:34.824Z,28.60
2018-06-30T16:51:03.697Z,28.52
2018-06-30T16:53:32.105Z,30.15
2018-06-30T16:56:00.543Z,29.66
2018-06-30T16:58:28.933Z,28.18
2018-06-30T17:00:57.384Z,27.88
2018-06-30T17:03:25.808Z,27.91
2018-06-30T17:05:54.252Z,28.34
2018-06-30T17:08:23.390Z,29.58
2018-06-30T17:10:52.436Z,27.72
2018-06-30T17:13:21.052Z,29.01
2018-06-30T17:15:49.498Z,25.97
2018-06-30T17:18:17.953Z,28.22
2018-06-30T17:20:46.401Z,27.68
2018-06-30T17:23:14.846Z,27.17
2018-06-30T17:25:43.322Z,28.31
2018-06-30T17:28:11.808Z,28.25
2018-06-30T17:30:40.732Z,26.56
2018-06-30T17:33:09.163Z,27.20
2018-06-30T17:35:37.632Z,27.36
2018-06-30T17:38:06.055Z,28.93
2018-06-30T17:40:34.482Z,27.43
2018-06-30T17:43:02.949Z,26.90
2018-06-30T17:45:31.391Z,27.83
2018-06-30T17:47:59.828Z,26.80
2018-06-30T17:50:28.301Z,28.19
2018-06-30T17:52:56.711Z,27.69
2018-06-30T17:55:25.112Z,27.54
2018-06-30T17:57:53.672Z,27.50
2018-06-30T18:00:22.099Z,29.03
2018-06-30T18:02:50.521Z,28.26
2018-06-30T18:05:18.927Z,28.93
2018-06-30T18:07:47.343Z,27.54
2018-06-30T18:10:15.924Z,28.07
2018-06-30T18:12:44.353Z,28.52
2018-06-30T18:15:12.739Z,27.92
2018-06-30T18:17:41.308Z,27.68
2018-06-30T18:20:09.781Z,27.42
2018-06-30T18:22:38.249Z,28.31
2018-06-30T18:25:06.703Z,28.24
2018-06-30T18:27:35.129Z,29.61
2018-06-30T18:30:03.646Z,27.45
2018-06-30T18:32:32.038Z,28.90
2018-06-30T18:35:00.432Z,28.78
2018-06-30T18:37:28.860Z,29.80
2018-06-30T18:39:57.429Z,28.20
2018-06-30T18:42:25.840Z,29.68
2018-06-30T18:44:54.244Z,28.91
2018-06-30T18:47:22.656Z,29.58
2018-06-30T18:49:51.752Z,30.37
2018-06-30T18:52:20.248Z,29.04
2018-06-30T18:54:49.158Z,29.46
2018-06-30T18:57:17.642Z,31.21
2018-06-30T18:59:46.036Z,30.56
2018-06-30T19:02:14.472Z,31.37
2018-06-30T19:04:42.947Z,30.12
2018-06-30T19:07:11.439Z,30.53
2018-06-30T19:09:39.909Z,29.33
2018-06-30T19:12:08.396Z,30.45
2018-06-30T19:14:36.809Z,30.08
2018-06-30T19:17:05.253Z,29.79
2018-06-30T19:19:33.724Z,31.28
2018-06-30T19:22:02.129Z,31.36
2018-06-30T19:24:30.517Z,32.35
2018-06-30T19:26:58.917Z,31.81
2018-06-30T19:29:27.319Z,31.01
2018-06-30T19:31:55.752Z,32.47
2018-06-30T19:34:24.156Z,32.36
2018-06-30T19:36:52.567Z,33.36
2018-06-30T19:39:21.035Z,33.17
2018-06-30T19:41:49.511Z,33.63
2018-06-30T19:44:17.958Z,33.61
2018-06-30T19:46:46.549Z,33.60
2018-06-30T19:49:14.931Z,33.53
2018-06-30T19:51:43.468Z,32.70
2018-06-30T19:54:11.949Z,35.19
2018-06-30T19:56:40.376Z,34.82
2018-06-30T19:59:08.847Z,33.50
2018-06-30T20:01:37.272Z,33.60
2018-06-30T20:04:05.736Z,32.82
2018-06-30T20:06:34.187Z,33.58
2018-06-30T20:09:02.648Z,34.48
2018-06-30T20:11:31.091Z,34.76
2018-06-30T20:13:59.571Z,34.49
2018-06-30T20:16:28.872Z,34.30
2018-06-30T20:18:58.121Z,35.39
2018-06-30T20:21:26.633Z,34.78
2018-06-30T20:23:55.053Z,34.84
2018-06-30T20:26:23.436Z,35.53
2018-06-30T20:28:51.936Z,35.17
2018-06-30T20:31:20.430Z,36.55
2018-06-30T20:33:48.951Z,34.66
2018-06-30T20:36:17.344Z,34.07
2018-06-30T20:38:46.528Z,35.88
2018-06-30T20:41:14.964Z,35.90
2018-06-30T20:43:43.362Z,35.10
2018-06-30T20:46:11.874Z,35.84
2018-06-30T20:48:40.309Z,36.02
2018-06-30T20:51:09.822Z,36.89
2018-06-30T20:53:38.299Z,35.81
2018-06-30T20:56:06.737Z,36.18
2018-06-30T20:58:35.473Z,37.65
2018-06-30T21:01:03.939Z,38.36
2018-06-30T21:03:32.427Z,38.04
2018-06-30T21:06:00.869Z,38.55
2018-06-30T21:08:29.323Z,37.04
2018-06-30T21:10:57.716Z,38.73
2018-06-30T21:13:26.160Z,39.64
2018-06-30T21:15:55.125Z,40.94
2018-06-30T21:18:23.492Z,40.91
2018-06-30T21:20:51.950Z,41.06
2018-06-30T21:23:20.404Z,41.81
2018-06-30T21:25:49.043Z,42.71
2018-06-30T21:28:17.453Z,41.53
2018-06-30T21:30:45.916Z,41.26
2018-06-30T21:33:14.379Z,40.22
2018-06-30T21:35:42.782Z,41.57
2018-06-30T21:38:12.937Z,41.64
2018-06-30T21:40:41.424Z,41.51
2018-06-30T21:43:10.160Z,41.38
2018-06-30T21:45:38.588Z,40.13
2018-06-30T21:48:08.035Z,38.64
2018-06-30T21:50:36.571Z,38.99
2018-06-30T21:53:05.090Z,36.06
2018-06-30T21:55:33.502Z,37.23
2018-06-30T21:58:04.712Z,38.91
2018-06-30T22:00:50.791Z,37.48
2018-06-30T22:03:22.931Z,35.31
2018-06-30T22:05:52.837Z,37.42
2018-06-30T22:08:21.461Z,37.99
2018-06-30T22:10:50.268Z,36.42
2018-06-30T22:13:19.183Z,37.92
2018-06-30T22:15:47.799Z,36.96
2018-06-30T22:18:16.306Z,36.47
2018-06-30T22:20:44.676Z,36.84
2018-06-30T22:23:13.096Z,35.53
2018-06-30T22:25:41.589Z,37.27
2018-06-30T22:28:10.295Z,36.31
2018-06-30T22:30:38.762Z,36.28
2018-06-30T22:33:07.186Z,35.11
2018-06-30T22:35:36.133Z,34.35
2018-06-30T22:38:04.786Z,34.62
2018-06-30T22:40:33.176Z,34.19
2018-06-30T22:43:01.602Z,33.94
2018-06-30T22:45:30.101Z,34.64
2018-06-30T22:47:58.648Z,34.59
2018-06-30T22:50:27.080Z,34.39
2018-06-30T22:52:56.001Z,35.12
2018-06-30T22:55:24.401Z,35.26
2018-06-30T22:57:53.745Z,35.34
2018-06-30T23:00:22.803Z,34.45
2018-06-30T23:02:51.179Z,34.15
2018-06-30T23:05:19.721Z,35.17
2018-06-30T23:07:48.136Z,35.96
2018-06-30T23:10:16.550Z,35.47
2018-06-30T23:12:45.370Z,35.30
2018-06-30T23:15:14.055Z,35.75
2018-06-30T23:17:42.462Z,35.40
2018-06-30T23:20:10.931Z,35.38
2018-06-30T23:25:41.218Z,35.70
2018-06-30T23:28:09.801Z,36.15
2018-06-30T23:30:38.680Z,36.51
2018-06-30T23:33:07.126Z,37.25
2018-06-30T23:35:35.554Z,36.98
2018-06-30T23:38:04.592Z,36.56
2018-06-30T23:40:33.083Z,36.16
2018-06-30T23:43:01.503Z,34.19
2018-06-30T23:45:30.025Z,36.15
2018-06-30T23:47:58.485Z,36.49
2018-06-30T23:50:26.907Z,37.14
2018-06-30T23:52:55.873Z,34.89
2018-06-30T23:55:24.284Z,36.17
2018-06-30T23:57:52.746Z,36.30
